createdAt,value
2018-06-09T00:00:49.986Z,18.41
2018-06-09T00:01:54.826Z,18.40
2018-06-09T00:02:59.575Z,18.41
2018-06-09T00:04:04.337Z,18.37
2018-06-09T00:05:09.053Z,18.33
2018-06-09T00:06:15.178Z,18.26
2018-06-09T00:07:21.667Z,18.24
2018-06-09T00:08:26.444Z,18.15
2018-06-09T00:09:31.827Z,18.14
2018-06-09T00:10:36.855Z,18.13
2018-06-09T00:11:41.654Z,18.15
2018-06-09T00:12:46.385Z,18.05
2018-06-09T00:13:52.234Z,17.92
2018-06-09T00:14:57.947Z,17.98
2018-06-09T00:16:05.494Z,18.02
2018-06-09T00:17:10.288Z,17.95
2018-06-09T00:18:15.399Z,17.91
2018-06-09T00:19:22.109Z,17.89
2018-06-09T00:20:27.847Z,17.90
2018-06-09T00:21:33.274Z,17.89
2018-06-09T00:22:39.774Z,17.90
2018-06-09T00:23:44.855Z,17.92
2018-06-09T00:24:50.000Z,17.88
2018-06-09T00:25:55.709Z,17.89
2018-06-09T00:27:00.458Z,17.85
2018-06-09T00:28:05.215Z,17.82
2018-06-09T00:29:09.997Z,17.76
2018-06-09T00:30:14.767Z,17.71
2018-06-09T00:31:19.969Z,17.63
2018-06-09T00:32:24.773Z,17.65
2018-06-09T00:33:29.567Z,17.65
2018-06-09T00:34:35.110Z,17.63
2018-06-09T00:35:41.443Z,17.58
2018-06-09T00:36:46.176Z,17.52
2018-06-09T00:37:51.336Z,17.42
2018-06-09T00:38:56.184Z,17.34
2018-06-09T00:40:01.524Z,17.36
2018-06-09T00:41:06.585Z,17.38
2018-06-09T00:42:11.364Z,17.31
2018-06-09T00:43:16.117Z,17.34
2018-06-09T00:44:21.241Z,17.45
2018-06-09T00:45:25.970Z,17.52
2018-06-09T00:46:30.752Z,17.57
2018-06-09T00:47:35.476Z,17.57
2018-06-09T00:48:40.576Z,17.44
2018-06-09T00:49:46.288Z,17.44
2018-06-09T00:50:52.554Z,17.42
2018-06-09T00:51:57.273Z,17.36
2018-06-09T00:53:02.043Z,17.39
2018-06-09T00:54:06.795Z,17.42
2018-06-09T00:55:12.916Z,17.41
2018-06-09T00:56:23.309Z,17.39
2018-06-09T00:57:28.177Z,17.37
2018-06-09T00:58:32.934Z,17.36
2018-06-09T00:59:37.781Z,17.33
2018-06-09T01:00:42.630Z,17.37
2018-06-09T01:01:47.457Z,17.31
2018-06-09T01:02:52.682Z,17.38
2018-06-09T01:03:57.445Z,17.43
2018-06-09T01:05:02.197Z,17.48
2018-06-09T01:06:08.990Z,17.53
2018-06-09T01:07:13.901Z,17.51
2018-06-09T01:08:18.756Z,17.53
2018-06-09T01:09:23.547Z,17.55
2018-06-09T01:10:28.666Z,17.60
2018-06-09T01:11:33.408Z,17.55
2018-06-09T01:12:38.122Z,17.45
2018-06-09T01:13:42.885Z,17.43
2018-06-09T01:14:51.108Z,17.42
2018-06-09T01:15:57.707Z,17.47
2018-06-09T01:17:02.454Z,17.52
2018-06-09T01:18:07.188Z,17.60
2018-06-09T01:19:11.953Z,17.56
2018-06-09T01:20:16.864Z,17.54
2018-06-09T01:21:22.732Z,17.58
2018-06-09T01:22:29.086Z,17.59
2018-06-09T01:23:33.805Z,17.67
2018-06-09T01:24:39.302Z,17.67
2018-06-09T01:25:44.047Z,17.72
2018-06-09T01:26:49.366Z,17.72
2018-06-09T01:27:56.796Z,17.76
2018-06-09T01:29:01.620Z,17.77
2018-06-09T01:30:06.345Z,17.80
2018-06-09T01:31:11.136Z,17.79
2018-06-09T01:32:15.906Z,17.83
2018-06-09T01:33:21.948Z,17.85
2018-06-09T01:34:27.080Z,17.84
2018-06-09T01:35:32.744Z,17.83
2018-06-09T01:36:37.539Z,17.72
2018-06-09T01:37:44.379Z,17.57
2018-06-09T01:38:50.117Z,17.51
2018-06-09T01:39:54.839Z,17.48
2018-06-09T01:41:02.406Z,17.49
2018-06-09T01:42:07.466Z,17.52
2018-06-09T01:43:12.500Z,17.58
2018-06-09T01:44:18.073Z,17.68
2018-06-09T01:45:24.355Z,17.69
2018-06-09T01:46:29.400Z,17.66
2018-06-09T01:47:34.171Z,17.72
2018-06-09T01:48:39.213Z,17.72
2018-06-09T01:49:44.059Z,17.73
2018-06-09T01:50:48.731Z,17.73
2018-06-09T01:51:54.528Z,17.76
2018-06-09T01:52:59.937Z,17.78
2018-06-09T01:54:04.606Z,17.77
2018-06-09T01:55:10.509Z,17.63
2018-06-09T01:56:15.212Z,17.54
2018-06-09T01:57:23.012Z,17.56
2018-06-09T01:58:28.522Z,17.57
2018-06-09T01:59:36.335Z,17.54
2018-06-09T02:00:41.072Z,17.53
2018-06-09T02:01:47.375Z,17.48
2018-06-09T02:02:52.296Z,17.40
2018-06-09T02:03:57.006Z,17.38
2018-06-09T02:05:02.667Z,17.35
2018-06-09T02:06:07.788Z,17.26
2018-06-09T02:07:12.479Z,17.31
2018-06-09T02:08:17.170Z,17.40
2018-06-09T02:09:21.945Z,17.41
2018-06-09T02:10:26.661Z,17.34
2018-06-09T02:11:33.979Z,17.32
2018-06-09T02:12:38.716Z,17.26
2018-06-09T02:13:44.499Z,17.18
2018-06-09T02:14:49.196Z,17.17
2018-06-09T02:15:53.884Z,17.20
2018-06-09T02:16:58.594Z,17.16
2018-06-09T02:18:03.804Z,17.14
2018-06-09T02:19:08.557Z,17.09
2018-06-09T02:20:13.819Z,17.15
2018-06-09T02:21:18.609Z,17.10
2018-06-09T02:22:23.377Z,17.07
2018-06-09T02:23:28.692Z,17.08
2018-06-09T02:24:33.441Z,17.05
2018-06-09T02:25:38.163Z,17.07
2018-06-09T02:26:42.839Z,17.02
2018-06-09T02:27:47.537Z,16.99
2018-06-09T02:28:52.899Z,16.94
2018-06-09T02:29:57.901Z,16.94
2018-06-09T02:31:02.913Z,16.98
2018-06-09T02:32:07.614Z,16.93
2018-06-09T02:33:12.376Z,16.84
2018-06-09T02:34:17.694Z,16.87
2018-06-09T02:35:22.408Z,16.92
2018-06-09T02:36:27.440Z,16.91
2018-06-09T02:37:32.141Z,16.83
2018-06-09T02:38:36.791Z,16.84
2018-06-09T02:39:42.318Z,16.87
2018-06-09T02:40:46.987Z,16.90
2018-06-09T02:41:51.648Z,16.93
2018-06-09T02:42:57.394Z,16.95
2018-06-09T02:44:02.045Z,16.95
2018-06-09T02:45:06.740Z,16.90
2018-06-09T02:46:11.427Z,16.89
2018-06-09T02:47:16.156Z,16.91
2018-06-09T02:48:20.853Z,16.90
2018-06-09T02:49:25.873Z,16.79
2018-06-09T02:50:30.554Z,16.81
2018-06-09T02:51:35.258Z,16.84
2018-06-09T02:52:39.996Z,16.90
2018-06-09T02:53:44.665Z,16.95
2018-06-09T02:54:52.070Z,16.98
2018-06-09T02:55:57.250Z,17.03
2018-06-09T02:57:02.108Z,17.00
2018-06-09T02:58:06.811Z,16.99
2018-06-09T02:59:11.456Z,17.04
2018-06-09T03:00:16.153Z,17.08
2018-06-09T03:01:20.821Z,17.15
2018-06-09T03:02:25.823Z,17.16
2018-06-09T03:03:30.505Z,17.13
2018-06-09T03:04:35.231Z,17.06
2018-06-09T03:05:39.942Z,17.02
2018-06-09T03:06:44.621Z,17.03
2018-06-09T03:07:51.004Z,17.04
2018-06-09T03:08:55.980Z,17.05
2018-06-09T03:10:00.761Z,17.08
2018-06-09T03:11:05.598Z,17.08
2018-06-09T03:12:10.437Z,17.01
2018-06-09T03:13:15.225Z,17.02
2018-06-09T03:14:20.027Z,17.01
2018-06-09T03:15:25.109Z,17.05
2018-06-09T03:16:29.989Z,17.07
2018-06-09T03:17:34.840Z,17.06
2018-06-09T03:18:39.636Z,17.08
2018-06-09T03:19:44.445Z,17.04
2018-06-09T03:20:50.647Z,17.05
2018-06-09T03:21:56.713Z,16.98
2018-06-09T03:23:01.486Z,16.99
2018-06-09T03:24:06.344Z,16.98
2018-06-09T03:25:11.249Z,16.99
2018-06-09T03:26:16.044Z,16.93
2018-06-09T03:27:20.854Z,16.98
2018-06-09T03:28:26.231Z,16.97
2018-06-09T03:29:31.037Z,16.97
2018-06-09T03:30:35.844Z,16.99
2018-06-09T03:31:40.637Z,16.98
2018-06-09T03:32:45.410Z,17.04
2018-06-09T03:33:50.653Z,17.03
2018-06-09T03:34:55.740Z,17.03
2018-06-09T03:36:00.572Z,17.04
2018-06-09T03:37:05.441Z,17.08
2018-06-09T03:38:10.324Z,17.12
2018-06-09T03:39:15.131Z,17.02
2018-06-09T03:40:19.994Z,17.02
2018-06-09T03:41:25.083Z,16.96
2018-06-09T03:42:29.899Z,16.95
2018-06-09T03:43:34.737Z,16.90
2018-06-09T03:44:39.530Z,16.91
2018-06-09T03:45:45.239Z,16.94
2018-06-09T03:46:50.070Z,16.98
2018-06-09T03:47:57.251Z,17.00
2018-06-09T03:49:02.035Z,16.97
2018-06-09T03:50:07.671Z,16.94
2018-06-09T03:51:13.335Z,16.89
2018-06-09T03:52:18.615Z,16.87
2018-06-09T03:53:24.200Z,16.89
2018-06-09T03:54:29.972Z,16.92
2018-06-09T03:55:37.847Z,16.88
2018-06-09T03:56:43.986Z,16.83
2018-06-09T03:57:48.669Z,16.87
2018-06-09T03:58:53.358Z,16.90
2018-06-09T03:59:58.112Z,16.98
2018-06-09T04:01:03.152Z,17.01
2018-06-09T04:02:07.838Z,17.06
2018-06-09T04:03:12.496Z,17.15
2018-06-09T04:04:17.223Z,17.18
2018-06-09T04:05:21.961Z,17.17
2018-06-09T04:06:26.658Z,17.19
2018-06-09T04:07:31.882Z,17.26
2018-06-09T04:08:36.596Z,17.21
2018-06-09T04:09:41.889Z,17.23
2018-06-09T04:10:46.600Z,17.26
2018-06-09T04:11:51.308Z,17.28
2018-06-09T04:12:59.937Z,17.37
2018-06-09T04:14:05.132Z,17.39
2018-06-09T04:15:09.844Z,17.38
2018-06-09T04:16:14.509Z,17.40
2018-06-09T04:17:19.181Z,17.39
2018-06-09T04:18:23.862Z,17.50
2018-06-09T04:19:29.767Z,17.51
2018-06-09T04:20:38.912Z,17.62
2018-06-09T04:21:43.580Z,17.69
2018-06-09T04:22:48.276Z,17.72
2018-06-09T04:23:53.016Z,17.77
2018-06-09T04:24:58.650Z,17.78
2018-06-09T04:26:04.228Z,17.78
2018-06-09T04:27:11.287Z,17.78
2018-06-09T04:28:17.039Z,17.83
2018-06-09T04:29:21.743Z,17.86
2018-06-09T04:30:26.443Z,17.85
2018-06-09T04:31:31.153Z,17.87
2018-06-09T04:32:35.842Z,17.96
2018-06-09T04:33:40.860Z,17.98
2018-06-09T04:34:45.632Z,17.95
2018-06-09T04:35:50.548Z,17.96
2018-06-09T04:36:55.343Z,17.92
2018-06-09T04:38:00.060Z,17.87
2018-06-09T04:39:06.581Z,17.85
2018-06-09T04:40:11.609Z,17.90
2018-06-09T04:41:16.552Z,17.96
2018-06-09T04:42:21.300Z,17.90
2018-06-09T04:43:26.044Z,17.92
2018-06-09T04:44:30.824Z,17.91
2018-06-09T04:45:36.104Z,17.98
2018-06-09T04:46:40.811Z,18.00
2018-06-09T04:47:45.546Z,18.01
2018-06-09T04:48:50.238Z,18.02
2018-06-09T04:49:54.948Z,18.05
2018-06-09T04:50:59.696Z,18.13
2018-06-09T04:52:04.732Z,18.14
2018-06-09T04:53:09.405Z,18.11
2018-06-09T04:54:14.680Z,18.08
2018-06-09T04:55:19.428Z,18.10
2018-06-09T04:56:24.332Z,18.14
2018-06-09T04:57:29.037Z,18.13
2018-06-09T04:58:34.160Z,18.16
2018-06-09T04:59:38.838Z,18.17
2018-06-09T05:00:43.591Z,18.21
2018-06-09T05:01:48.305Z,18.25
2018-06-09T05:02:55.002Z,18.35
2018-06-09T05:03:59.826Z,18.44
2018-06-09T05:05:04.979Z,18.43
2018-06-09T05:06:09.692Z,18.33
2018-06-09T05:07:17.269Z,18.27
2018-06-09T05:08:21.921Z,18.42
2018-06-09T05:09:27.146Z,18.44
2018-06-09T05:10:31.901Z,18.49
2018-06-09T05:11:37.058Z,18.51
2018-06-09T05:12:41.748Z,18.40
2018-06-09T05:13:46.604Z,18.48
2018-06-09T05:14:51.985Z,18.44
2018-06-09T05:15:56.709Z,18.46
2018-06-09T05:17:01.428Z,18.36
2018-06-09T05:18:06.589Z,18.36
2018-06-09T05:19:13.073Z,18.43
2018-06-09T05:20:18.106Z,18.53
2018-06-09T05:21:22.864Z,18.50
2018-06-09T05:22:28.012Z,18.47
2018-06-09T05:23:33.600Z,18.47
2018-06-09T05:24:39.411Z,18.34
2018-06-09T05:25:44.137Z,18.25
2018-06-09T05:26:48.827Z,18.22
2018-06-09T05:27:53.605Z,18.16
2018-06-09T05:28:58.346Z,18.17
2018-06-09T05:30:03.261Z,18.21
2018-06-09T05:31:09.455Z,18.19
2018-06-09T05:32:14.300Z,18.15
2018-06-09T05:33:19.193Z,18.20
2018-06-09T05:34:24.020Z,18.27
2018-06-09T05:35:28.816Z,18.22
2018-06-09T05:36:35.417Z,18.27
2018-06-09T05:37:40.593Z,18.31
2018-06-09T05:38:45.435Z,18.34
2018-06-09T05:39:50.309Z,18.42
2018-06-09T05:40:55.206Z,18.50
2018-06-09T05:42:00.033Z,18.50
2018-06-09T05:43:05.456Z,18.49
2018-06-09T05:44:13.681Z,18.56
2018-06-09T05:45:18.581Z,18.55
2018-06-09T05:46:23.438Z,18.67
2018-06-09T05:47:28.442Z,18.80
2018-06-09T05:48:33.363Z,18.82
2018-06-09T05:49:39.520Z,18.77
2018-06-09T05:50:45.714Z,18.65
2018-06-09T05:51:52.466Z,18.62
2018-06-09T05:52:58.454Z,18.62
2018-06-09T05:54:03.448Z,18.59
2018-06-09T05:55:08.481Z,18.56
2018-06-09T05:56:13.304Z,18.64
2018-06-09T05:57:18.617Z,18.80
2018-06-09T05:58:24.216Z,18.89
2018-06-09T05:59:29.362Z,18.82
2018-06-09T06:00:34.438Z,18.87
2018-06-09T06:01:39.322Z,18.85
2018-06-09T06:02:44.212Z,18.98
2018-06-09T06:03:50.812Z,19.02
2018-06-09T06:04:57.513Z,18.98
2018-06-09T06:06:02.403Z,19.08
2018-06-09T06:07:07.329Z,19.25
2018-06-09T06:08:12.193Z,19.19
2018-06-09T06:09:17.667Z,19.20
2018-06-09T06:10:23.043Z,19.13
2018-06-09T06:11:29.191Z,19.24
2018-06-09T06:12:35.546Z,19.24
2018-06-09T06:13:40.264Z,19.39
2018-06-09T06:14:44.943Z,19.30
2018-06-09T06:15:49.646Z,19.33
2018-06-09T06:16:54.953Z,19.39
2018-06-09T06:17:59.671Z,19.46
2018-06-09T06:19:04.360Z,19.56
2018-06-09T06:20:09.352Z,19.58
2018-06-09T06:21:14.955Z,19.65
2018-06-09T06:22:20.633Z,19.61
2018-06-09T06:23:26.765Z,19.68
2018-06-09T06:24:31.428Z,19.75
2018-06-09T06:25:36.091Z,19.75
2018-06-09T06:26:41.342Z,19.81
2018-06-09T06:27:46.408Z,19.69
2018-06-09T06:28:51.163Z,19.80
2018-06-09T06:29:56.513Z,19.94
2018-06-09T06:31:02.326Z,19.94
2018-06-09T06:32:07.133Z,19.94
2018-06-09T06:33:11.952Z,20.00
2018-06-09T06:34:17.206Z,20.05
2018-06-09T06:35:23.453Z,20.11
2018-06-09T06:36:29.493Z,20.38
2018-06-09T06:37:34.297Z,20.49
2018-06-09T06:38:39.377Z,20.73
2018-06-09T06:39:44.164Z,20.95
2018-06-09T06:40:48.986Z,21.10
2018-06-09T06:41:54.172Z,21.04
2018-06-09T06:42:59.310Z,21.19
2018-06-09T06:44:04.202Z,21.24
2018-06-09T06:45:10.022Z,21.33
2018-06-09T06:46:14.833Z,21.40
2018-06-09T06:47:19.762Z,21.26
2018-06-09T06:48:25.781Z,21.23
2018-06-09T06:49:31.311Z,21.19
2018-06-09T06:50:37.372Z,21.09
2018-06-09T06:51:42.262Z,20.96
2018-06-09T06:52:47.240Z,20.98
2018-06-09T06:53:52.048Z,21.11
2018-06-09T06:54:57.304Z,20.94
2018-06-09T06:56:04.328Z,20.77
2018-06-09T06:57:09.202Z,20.57
2018-06-09T06:58:14.052Z,20.54
2018-06-09T06:59:19.000Z,20.79
2018-06-09T07:00:24.513Z,21.00
2018-06-09T07:01:30.614Z,21.19
2018-06-09T07:02:38.193Z,21.26
2018-06-09T07:03:43.427Z,21.45
2018-06-09T07:04:48.142Z,21.53
2018-06-09T07:05:52.986Z,21.59
2018-06-09T07:06:58.200Z,21.60
2018-06-09T07:08:02.954Z,21.70
2018-06-09T07:09:08.898Z,21.71
2018-06-09T07:10:13.814Z,21.82
2018-06-09T07:11:18.635Z,21.79
2018-06-09T07:12:24.375Z,21.69
2018-06-09T07:13:29.239Z,21.61
2018-06-09T07:14:34.134Z,21.46
2018-06-09T07:15:39.818Z,21.60
2018-06-09T07:16:59.661Z,21.71
2018-06-09T07:18:05.700Z,21.84
2018-06-09T07:19:12.364Z,21.90
2018-06-09T07:25:49.244Z,22.08
2018-06-09T07:26:54.173Z,22.52
2018-06-09T07:28:03.675Z,22.43
2018-06-09T07:29:08.742Z,22.06
2018-06-09T07:30:14.856Z,21.97
2018-06-09T07:31:20.164Z,21.80
2018-06-09T07:32:25.922Z,21.94
2018-06-09T07:33:36.971Z,22.26
2018-06-09T07:34:41.827Z,22.61
2018-06-09T07:35:47.500Z,22.84
2018-06-09T07:36:52.349Z,23.04
2018-06-09T07:37:58.629Z,22.81
2018-06-09T07:39:05.320Z,22.87
2018-06-09T07:40:12.161Z,23.09
2018-06-09T07:41:19.492Z,22.94
2018-06-09T07:42:27.316Z,22.71
2018-06-09T07:43:33.440Z,22.81
2018-06-09T07:44:39.194Z,22.62
2018-06-09T07:45:45.312Z,22.64
2018-06-09T07:46:50.411Z,22.88
2018-06-09T07:47:56.293Z,23.08
2018-06-09T07:49:04.724Z,22.66
2018-06-09T07:50:13.258Z,22.59
2018-06-09T07:51:21.414Z,22.48
2018-06-09T07:52:27.774Z,22.48
2018-06-09T07:53:32.720Z,22.77
2018-06-09T07:54:37.591Z,22.75
2018-06-09T07:55:42.998Z,22.89
2018-06-09T07:56:47.964Z,22.82
2018-06-09T07:57:53.445Z,22.75
2018-06-09T07:58:58.659Z,22.59
2018-06-09T08:00:04.266Z,22.80
2018-06-09T08:01:09.009Z,23.27
2018-06-09T08:02:18.077Z,23.56
2018-06-09T08:03:23.847Z,23.33
2018-06-09T08:04:29.147Z,23.34
2018-06-09T08:05:35.337Z,23.47
2018-06-09T08:06:43.080Z,23.64
2018-06-09T08:07:47.776Z,23.49
2018-06-09T08:08:53.239Z,23.48
2018-06-09T08:09:59.114Z,23.55
2018-06-09T08:11:03.870Z,23.68
2018-06-09T08:12:09.978Z,23.58
2018-06-09T08:13:15.170Z,23.70
2018-06-09T08:14:22.525Z,23.90
2018-06-09T08:15:27.755Z,24.00
2018-06-09T08:16:33.011Z,24.11
2018-06-09T08:17:39.654Z,24.35
2018-06-09T08:18:51.618Z,24.32
2018-06-09T08:19:57.266Z,24.33
2018-06-09T08:21:02.658Z,24.51
2018-06-09T08:22:09.366Z,24.69
2018-06-09T08:23:15.926Z,25.12
2018-06-09T08:24:21.074Z,25.43
2018-06-09T08:25:26.623Z,25.33
2018-06-09T08:26:31.722Z,25.53
2018-06-09T08:27:37.354Z,25.67
2018-06-09T08:28:42.558Z,25.68
2018-06-09T08:29:48.046Z,25.69
2018-06-09T08:30:54.716Z,25.25
2018-06-09T08:32:00.856Z,25.29
2018-06-09T08:33:05.822Z,24.88
2018-06-09T08:34:10.528Z,24.92
2018-06-09T08:35:16.518Z,25.19
2018-06-09T08:36:22.490Z,25.36
2018-06-09T08:37:30.257Z,25.51
2018-06-09T08:38:37.150Z,25.57
2018-06-09T08:39:42.414Z,25.57
2018-06-09T08:40:48.359Z,25.60
2018-06-09T08:41:56.505Z,25.77
2018-06-09T08:43:03.773Z,26.01
2018-06-09T08:44:10.515Z,26.04
2018-06-09T08:45:17.460Z,25.91
2018-06-09T08:46:23.836Z,26.00
2018-06-09T08:47:30.147Z,25.89
2018-06-09T08:48:35.746Z,24.92
2018-06-09T08:49:42.505Z,24.80
2018-06-09T08:50:48.581Z,24.92
2018-06-09T08:51:53.979Z,25.02
2018-06-09T08:53:00.656Z,25.10
2018-06-09T08:54:05.489Z,25.28
2018-06-09T08:55:10.811Z,25.56
2018-06-09T08:56:16.426Z,25.87
2018-06-09T08:57:23.873Z,26.05
2018-06-09T08:58:28.735Z,26.09
2018-06-09T08:59:33.640Z,26.32
2018-06-09T09:00:38.525Z,26.59
2018-06-09T09:01:44.248Z,26.60
2018-06-09T09:02:50.790Z,25.95
2018-06-09T09:03:55.748Z,25.69
2018-06-09T09:05:00.644Z,25.90
2018-06-09T09:06:06.322Z,26.01
2018-06-09T09:07:11.818Z,25.98
2018-06-09T09:08:17.041Z,25.83
2018-06-09T09:09:22.796Z,25.86
2018-06-09T09:10:28.313Z,25.67
2018-06-09T09:11:33.648Z,25.82
2018-06-09T09:12:40.294Z,26.15
2018-06-09T09:13:47.401Z,26.17
2018-06-09T09:14:53.357Z,26.18
2018-06-09T09:15:59.534Z,25.94
2018-06-09T09:17:04.468Z,25.94
2018-06-09T09:18:11.142Z,26.01
2018-06-09T09:19:16.786Z,25.82
2018-06-09T09:20:24.919Z,26.15
2018-06-09T09:21:29.671Z,26.49
2018-06-09T09:22:34.527Z,25.89
2018-06-09T09:23:40.027Z,25.27
2018-06-09T09:24:44.754Z,25.50
2018-06-09T09:25:49.628Z,25.43
2018-06-09T09:26:55.395Z,25.21
2018-06-09T09:28:01.949Z,25.56
2018-06-09T09:29:08.944Z,25.69
2018-06-09T09:30:16.258Z,25.99
2018-06-09T09:31:22.451Z,26.18
2018-06-09T09:32:27.537Z,26.47
2018-06-09T09:33:32.253Z,26.66
2018-06-09T09:34:40.107Z,26.92
2018-06-09T09:35:44.978Z,26.76
2018-06-09T09:36:50.143Z,26.80
2018-06-09T09:37:55.333Z,26.99
2018-06-09T09:39:03.128Z,27.24
2018-06-09T09:40:09.538Z,26.90
2018-06-09T09:41:15.443Z,26.37
2018-06-09T09:42:20.708Z,26.29
2018-06-09T09:43:25.527Z,25.76
2018-06-09T09:44:43.093Z,26.04
2018-06-09T09:45:51.004Z,26.20
2018-06-09T09:46:56.408Z,26.44
2018-06-09T09:48:01.913Z,26.86
2018-06-09T09:49:07.536Z,27.30
2018-06-09T09:50:12.416Z,27.44
2018-06-09T09:51:17.901Z,27.58
2018-06-09T09:52:23.617Z,27.70
2018-06-09T09:53:29.430Z,27.76
2018-06-09T09:54:36.595Z,27.96
2018-06-09T09:55:42.096Z,27.95
2018-06-09T09:56:47.873Z,27.76
2018-06-09T09:58:00.053Z,27.75
2018-06-09T09:59:06.357Z,27.97
2018-06-09T10:00:11.313Z,27.63
2018-06-09T10:01:16.996Z,27.52
2018-06-09T10:02:23.203Z,27.21
2018-06-09T10:03:29.257Z,26.24
2018-06-09T10:04:35.770Z,26.62
2018-06-09T10:05:45.339Z,26.96
2018-06-09T10:06:51.572Z,27.32
2018-06-09T10:07:57.920Z,27.27
2018-06-09T10:09:02.867Z,26.97
2018-06-09T10:10:09.353Z,27.01
2018-06-09T10:11:14.577Z,26.91
2018-06-09T10:12:21.267Z,26.96
2018-06-09T10:13:27.649Z,26.54
2018-06-09T10:14:33.385Z,26.79
2018-06-09T10:15:39.946Z,26.78
2018-06-09T10:16:45.686Z,26.57
2018-06-09T10:17:50.528Z,26.23
2018-06-09T10:18:56.341Z,26.17
2018-06-09T10:20:04.167Z,26.27
2018-06-09T10:21:09.353Z,26.16
2018-06-09T10:22:17.318Z,26.17
2018-06-09T10:23:24.731Z,26.12
2018-06-09T10:24:30.658Z,26.15
2018-06-09T10:25:35.762Z,26.35
2018-06-09T10:26:41.227Z,26.74
2018-06-09T10:27:47.307Z,26.44
2018-06-09T10:28:52.152Z,26.26
2018-06-09T10:29:59.126Z,26.71
2018-06-09T10:31:03.955Z,26.67
2018-06-09T10:32:09.983Z,26.60
2018-06-09T10:33:15.124Z,26.39
2018-06-09T10:34:20.015Z,26.14
2018-06-09T10:35:26.385Z,25.84
2018-06-09T10:36:31.511Z,26.00
2018-06-09T10:37:36.366Z,26.23
2018-06-09T10:38:42.232Z,25.90
2018-06-09T10:45:18.910Z,25.80
2018-06-09T10:46:25.350Z,26.92
2018-06-09T10:47:31.230Z,26.91
2018-06-09T10:48:36.139Z,26.79
2018-06-09T10:49:40.977Z,26.66
2018-06-09T10:50:47.133Z,26.19
2018-06-09T10:51:53.535Z,26.06
2018-06-09T10:53:00.877Z,25.94
2018-06-09T10:54:07.573Z,25.91
2018-06-09T10:55:12.989Z,26.35
2018-06-09T10:56:17.867Z,26.44
2018-06-09T10:57:24.277Z,26.58
2018-06-09T10:58:31.415Z,26.45
2018-06-09T10:59:36.253Z,26.22
2018-06-09T11:00:43.291Z,26.07
2018-06-09T11:01:52.430Z,26.03
2018-06-09T11:02:59.387Z,25.69
2018-06-09T11:04:16.018Z,25.85
2018-06-09T11:05:24.148Z,26.19
2018-06-09T11:06:30.373Z,26.14
2018-06-09T11:07:35.805Z,26.01
2018-06-09T11:08:43.800Z,26.29
2018-06-09T11:09:49.460Z,26.80
2018-06-09T11:10:57.675Z,26.48
2018-06-09T11:12:03.504Z,26.24
2018-06-09T11:13:10.150Z,25.75
2018-06-09T11:14:16.750Z,26.03
2018-06-09T11:15:24.794Z,26.80
2018-06-09T11:16:30.349Z,27.50
2018-06-09T11:17:36.510Z,27.61
2018-06-09T11:18:42.316Z,26.66
2018-06-09T11:19:47.442Z,26.96
2018-06-09T11:20:54.368Z,26.73
2018-06-09T11:21:59.814Z,27.24
2018-06-09T11:23:08.648Z,27.48
2018-06-09T11:24:17.870Z,27.04
2018-06-09T11:25:23.582Z,27.16
2018-06-09T11:26:29.492Z,26.93
2018-06-09T11:27:35.262Z,27.15
2018-06-09T11:28:41.450Z,27.36
2018-06-09T11:29:46.185Z,27.18
2018-06-09T11:30:51.305Z,27.25
2018-06-09T11:31:56.228Z,27.23
2018-06-09T11:33:01.156Z,27.26
2018-06-09T11:34:06.375Z,27.78
2018-06-09T11:35:11.830Z,27.81
2018-06-09T11:36:20.624Z,27.65
2018-06-09T11:37:27.371Z,27.60
2018-06-09T11:38:34.381Z,27.64
2018-06-09T11:39:39.264Z,27.69
2018-06-09T11:40:44.117Z,27.88
2018-06-09T11:41:51.000Z,27.90
2018-06-09T11:42:55.962Z,27.25
2018-06-09T11:44:01.538Z,27.28
2018-06-09T11:45:08.532Z,27.58
2018-06-09T11:46:16.894Z,27.59
2018-06-09T11:47:27.773Z,27.43
2018-06-09T11:48:36.188Z,27.56
2018-06-09T11:49:41.928Z,28.02
2018-06-09T11:50:47.992Z,28.56
2018-06-09T11:51:53.645Z,29.05
2018-06-09T11:52:58.515Z,29.12
2018-06-09T11:54:04.238Z,28.75
2018-06-09T11:55:10.065Z,28.11
2018-06-09T11:56:14.905Z,27.54
2018-06-09T11:57:21.469Z,27.47
2018-06-09T11:58:26.447Z,27.65
2018-06-09T11:59:31.275Z,27.62
2018-06-09T12:00:36.753Z,27.61
2018-06-09T12:01:41.662Z,27.56
2018-06-09T12:02:49.452Z,27.21
2018-06-09T12:03:55.770Z,27.22
2018-06-09T12:05:24.564Z,27.77
2018-06-09T12:06:32.057Z,27.63
2018-06-09T12:07:38.702Z,27.69
2018-06-09T12:08:44.149Z,27.62
2018-06-09T12:09:49.188Z,28.17
2018-06-09T12:10:57.761Z,28.17
2018-06-09T12:12:05.519Z,28.19
2018-06-09T12:13:11.339Z,28.14
2018-06-09T12:14:22.578Z,28.08
2018-06-09T12:15:32.031Z,28.38
2018-06-09T12:16:37.738Z,28.14
2018-06-09T12:17:42.550Z,28.06
2018-06-09T12:18:50.345Z,27.97
2018-06-09T12:19:55.226Z,27.44
2018-06-09T12:21:00.238Z,27.46
2018-06-09T12:22:05.023Z,27.60
2018-06-09T12:23:11.200Z,27.68
2018-06-09T12:24:16.701Z,27.49
2018-06-09T12:25:23.338Z,27.44
2018-06-09T12:26:29.719Z,27.20
2018-06-09T12:27:35.190Z,27.35
2018-06-09T12:28:41.970Z,27.46
2018-06-09T12:29:47.337Z,27.67
2018-06-09T12:30:52.014Z,28.10
2018-06-09T12:31:57.243Z,28.15
2018-06-09T12:33:02.570Z,28.05
2018-06-09T12:34:10.169Z,28.52
2018-06-09T12:35:15.587Z,28.84
2018-06-09T12:36:20.327Z,29.05
2018-06-09T12:37:25.156Z,28.59
2018-06-09T12:38:31.051Z,28.42
2018-06-09T12:39:35.777Z,28.36
2018-06-09T12:40:40.460Z,28.19
2018-06-09T12:41:46.432Z,28.26
2018-06-09T12:42:51.566Z,28.36
2018-06-09T12:43:56.294Z,28.72
2018-06-09T12:45:02.176Z,28.99
2018-06-09T12:46:06.933Z,29.25
2018-06-09T12:47:11.622Z,29.31
2018-06-09T12:48:16.438Z,29.26
2018-06-09T12:49:21.227Z,29.30
2018-06-09T12:50:26.103Z,29.50
2018-06-09T12:51:31.595Z,29.61
2018-06-09T12:52:37.296Z,29.68
2018-06-09T12:53:42.629Z,29.74
2018-06-09T12:54:48.795Z,29.66
2018-06-09T12:55:53.611Z,29.76
2018-06-09T12:57:02.555Z,29.79
2018-06-09T12:58:07.847Z,29.72
2018-06-09T12:59:25.750Z,29.70
2018-06-09T13:00:31.675Z,29.79
2018-06-09T13:01:38.467Z,29.92
2018-06-09T13:02:43.590Z,29.78
2018-06-09T13:03:50.689Z,29.47
2018-06-09T13:04:56.870Z,29.32
2018-06-09T13:06:04.039Z,29.41
2018-06-09T13:07:12.388Z,29.24
2018-06-09T13:08:20.024Z,29.17
2018-06-09T13:09:25.192Z,28.86
2018-06-09T13:10:30.707Z,28.84
2018-06-09T13:11:36.620Z,29.00
2018-06-09T13:12:42.480Z,28.63
2018-06-09T13:13:48.515Z,28.47
2018-06-09T13:14:53.575Z,28.03
2018-06-09T13:15:58.498Z,27.83
2018-06-09T13:17:04.419Z,27.48
2018-06-09T13:18:11.996Z,26.73
2018-06-09T13:19:16.864Z,26.72
2018-06-09T13:20:22.320Z,26.40
2018-06-09T13:21:29.453Z,26.16
2018-06-09T13:22:36.044Z,25.89
2018-06-09T13:23:41.429Z,25.53
2018-06-09T13:24:46.316Z,25.42
2018-06-09T13:25:52.089Z,25.11
2018-06-09T13:26:59.280Z,24.85
2018-06-09T13:28:05.023Z,24.34
2018-06-09T13:29:09.988Z,24.15
2018-06-09T13:30:15.901Z,23.92
2018-06-09T13:31:22.759Z,23.91
2018-06-09T13:32:29.042Z,23.73
2018-06-09T13:33:34.413Z,23.79
2018-06-09T13:34:41.442Z,23.82
2018-06-09T13:35:48.104Z,23.81
2018-06-09T13:36:56.550Z,23.44
2018-06-09T13:38:02.249Z,23.09
2018-06-09T13:39:10.018Z,22.81
2018-06-09T13:40:16.363Z,22.49
2018-06-09T13:41:24.285Z,22.59
2018-06-09T13:42:30.467Z,22.53
2018-06-09T13:43:35.199Z,22.39
2018-06-09T13:44:41.545Z,22.25
2018-06-09T13:45:46.248Z,22.15
2018-06-09T13:46:53.522Z,22.05
2018-06-09T13:48:00.676Z,21.92
2018-06-09T13:49:07.565Z,21.87
2018-06-09T13:50:12.313Z,21.82
2018-06-09T13:51:18.242Z,21.52
2018-06-09T13:52:23.638Z,21.36
2018-06-09T13:53:30.626Z,21.36
2018-06-09T13:54:35.692Z,21.27
2018-06-09T13:55:41.243Z,21.43
2018-06-09T13:56:46.912Z,21.37
2018-06-09T13:57:53.965Z,21.39
2018-06-09T13:58:58.678Z,21.50
2018-06-09T14:00:05.353Z,21.34
2018-06-09T14:01:11.284Z,21.46
2018-06-09T14:02:17.919Z,21.44
2018-06-09T14:03:23.816Z,21.56
2018-06-09T14:04:29.353Z,21.84
2018-06-09T14:05:36.027Z,22.04
2018-06-09T14:06:42.096Z,21.91
2018-06-09T14:07:47.530Z,21.70
2018-06-09T14:08:53.353Z,21.89
2018-06-09T14:09:58.196Z,21.91
2018-06-09T14:11:07.792Z,21.31
2018-06-09T14:12:14.046Z,21.39
2018-06-09T14:13:20.340Z,21.53
2018-06-09T14:14:27.136Z,21.68
2018-06-09T14:15:33.069Z,21.15
2018-06-09T14:16:38.759Z,21.05
2018-06-09T14:17:43.457Z,21.41